createdAt,value
2017-12-31T00:00:36.705Z,60.36
2017-12-31T00:01:36.955Z,59.79
2017-12-31T00:02:36.940Z,59.51
2017-12-31T00:03:36.656Z,59.51
2017-12-31T00:04:36.642Z,59.12
2017-12-31T00:05:36.888Z,59.22
2017-12-31T00:06:36.613Z,59.22
2017-12-31T00:07:36.598Z,58.94
2017-12-31T00:08:36.840Z,58.75
2017-12-31T00:09:36.825Z,57.98
2017-12-31T00:10:36.811Z,57.98
2017-12-31T00:11:36.534Z,57.31
2017-12-31T00:12:36.781Z,57.89
2017-12-31T00:13:36.498Z,57.6
2017-12-31T00:14:36.487Z,57.03
2017-12-31T00:15:36.737Z,56.74
2017-12-31T00:16:36.720Z,56.84
2017-12-31T00:17:36.434Z,56.93
2017-12-31T00:18:36.687Z,56.65
2017-12-31T00:19:36.866Z,56.36
2017-12-31T00:20:36.657Z,56.46
2017-12-31T00:21:36.639Z,56.55
2017-12-31T00:22:36.619Z,55.88
2017-12-31T00:23:36.601Z,55.6
2017-12-31T00:24:36.321Z,55.69
2017-12-31T00:25:36.571Z,55.88
2017-12-31T00:26:36.290Z,55.69
2017-12-31T00:27:36.273Z,55.98
2017-12-31T00:28:36.259Z,55.69
2017-12-31T00:29:36.506Z,55.69
2017-12-31T00:30:36.488Z,55.79
2017-12-31T00:31:36.215Z,55.41
2017-12-31T00:32:36.193Z,55.02
2017-12-31T00:33:36.189Z,54.64
2017-12-31T00:34:36.425Z,54.83
2017-12-31T00:35:36.149Z,54.17
2017-12-31T00:36:36.129Z,54.36
2017-12-31T00:37:36.115Z,54.07
2017-12-31T00:38:36.365Z,53.88
2017-12-31T00:39:36.082Z,54.17
2017-12-31T00:40:36.065Z,53.97
2017-12-31T00:41:36.314Z,53.97
2017-12-31T00:42:36.294Z,53.78
2017-12-31T00:43:36.284Z,53.5
2017-12-31T00:44:36.007Z,53.5
2017-12-31T00:45:35.987Z,52.45
2017-12-31T00:46:36.232Z,52.07
2017-12-31T00:47:36.217Z,51.97
2017-12-31T00:48:36.196Z,51.78
2017-12-31T00:49:35.921Z,52.16
2017-12-31T00:50:36.172Z,53.41
2017-12-31T00:51:36.163Z,53.59
2017-12-31T00:52:36.134Z,53.21
2017-12-31T00:53:36.123Z,52.26
2017-12-31T00:54:35.839Z,52.73
2017-12-31T00:55:36.084Z,52.45
2017-12-31T00:56:36.072Z,52.26
2017-12-31T00:57:35.791Z,50.92
2017-12-31T00:58:35.778Z,50.54
2017-12-31T00:59:35.758Z,50.54
2017-12-31T01:00:36.009Z,49.47
2017-12-31T01:01:35.731Z,49.66
2017-12-31T01:02:35.981Z,49.28
2017-12-31T01:03:35.957Z,49.11
2017-12-31T01:04:35.681Z,49.11
2017-12-31T01:05:35.662Z,51.28
2017-12-31T01:06:35.913Z,51.28
2017-12-31T01:07:35.894Z,51.56
2017-12-31T01:08:35.615Z,52.23
2017-12-31T01:09:35.593Z,53.38
2017-12-31T01:10:35.846Z,54.52
2017-12-31T01:11:35.558Z,54.43
2017-12-31T01:12:35.806Z,53.09
2017-12-31T01:13:35.792Z,52.61
2017-12-31T01:14:35.512Z,51.76
2017-12-31T01:15:35.491Z,52.04
2017-12-31T01:16:35.474Z,51.37
2017-12-31T01:17:35.723Z,50.52
2017-12-31T01:18:35.444Z,49.28
2017-12-31T01:19:35.697Z,49.37
2017-12-31T01:20:35.668Z,48.71
2017-12-31T01:21:35.655Z,48.52
2017-12-31T01:22:35.638Z,47.47
2017-12-31T01:23:35.361Z,47.56
2017-12-31T01:24:35.347Z,47.37
2017-12-31T01:25:35.586Z,47.94
2017-12-31T01:26:35.306Z,47.75
2017-12-31T01:27:35.551Z,47.56
2017-12-31T01:28:35.326Z,47.37
2017-12-31T01:29:35.523Z,47.75
2017-12-31T01:30:35.498Z,48.8
2017-12-31T01:31:35.482Z,48.61
2017-12-31T01:32:35.203Z,48.71
2017-12-31T01:33:35.453Z,49.95
2017-12-31T01:34:35.433Z,50.68
2017-12-31T01:35:35.153Z,50.87
2017-12-31T01:36:35.139Z,50.49
2017-12-31T01:37:35.385Z,50.21
2017-12-31T01:38:35.103Z,50.01
2017-12-31T01:39:35.347Z,50.3
2017-12-31T01:40:35.329Z,50.78
2017-12-31T01:41:35.052Z,50.78
2017-12-31T01:42:35.040Z,49.92
2017-12-31T01:43:35.282Z,50.49
2017-12-31T01:44:35.263Z,49.82
2017-12-31T01:45:35.247Z,48.97
2017-12-31T01:46:35.226Z,48.68
2017-12-31T01:47:35.210Z,48.58
2017-12-31T01:48:35.197Z,48.21
2017-12-31T01:49:35.174Z,47.73
2017-12-31T01:50:34.898Z,47.92
2017-12-31T01:51:34.883Z,46.58
2017-12-31T01:52:34.864Z,46.39
2017-12-31T01:53:34.844Z,46.2
2017-12-31T01:54:34.825Z,46.3
2017-12-31T01:55:35.072Z,45.92
2017-12-31T01:56:35.066Z,45.63
2017-12-31T01:57:35.040Z,45.63
2017-12-31T01:58:35.019Z,45.7
2017-12-31T01:59:35.008Z,45.61
2017-12-31T02:00:34.985Z,45.35
2017-12-31T02:01:34.705Z,45.83
2017-12-31T02:02:34.948Z,45.35
2017-12-31T02:03:34.675Z,45.35
2017-12-31T02:04:34.918Z,45.63
2017-12-31T02:05:34.907Z,45.06
2017-12-31T02:06:34.882Z,44.59
2017-12-31T02:07:34.874Z,45.54
2017-12-31T02:08:34.855Z,45.54
2017-12-31T02:09:34.568Z,45.44
2017-12-31T02:10:34.820Z,45.25
2017-12-31T02:11:34.532Z,45.15
2017-12-31T02:12:34.780Z,45.06
2017-12-31T02:13:34.764Z,45.44
2017-12-31T02:14:34.745Z,45.44
2017-12-31T02:15:34.729Z,45.63
2017-12-31T02:16:34.447Z,45.25
2017-12-31T02:17:34.432Z,45.44
2017-12-31T02:18:34.682Z,45.15
2017-12-31T02:19:34.861Z,45.25
2017-12-31T02:20:34.645Z,45.25
2017-12-31T02:21:34.624Z,45.15
2017-12-31T02:22:34.606Z,45.25
2017-12-31T02:23:34.590Z,45.15
2017-12-31T02:24:34.573Z,45.25
2017-12-31T02:25:34.566Z,45.54
2017-12-31T02:26:34.277Z,45.63
2017-12-31T02:27:34.529Z,45.63
2017-12-31T02:28:34.243Z,45.54
2017-12-31T02:29:34.491Z,46.01
2017-12-31T02:30:34.216Z,45.83
2017-12-31T02:31:34.457Z,46.01
2017-12-31T02:32:34.436Z,46.3
2017-12-31T02:33:34.157Z,46.11
2017-12-31T02:34:34.195Z,46.3
2017-12-31T02:35:34.123Z,46.11
2017-12-31T02:36:34.373Z,46.49
2017-12-31T02:37:34.088Z,46.39
2017-12-31T02:38:34.069Z,47.16
2017-12-31T02:39:34.329Z,46.78
2017-12-31T02:40:34.302Z,46.78
2017-12-31T02:41:34.020Z,46.87
2017-12-31T02:42:34.003Z,47.44
2017-12-31T02:43:34.254Z,47.92
2017-12-31T02:44:33.971Z,48.02
2017-12-31T02:45:33.960Z,47.82
2017-12-31T02:46:34.204Z,47.92
2017-12-31T02:47:34.181Z,47.82
2017-12-31T02:48:33.901Z,48.49
2017-12-31T02:49:33.883Z,48.68
2017-12-31T02:50:34.142Z,48.78
2017-12-31T02:51:34.115Z,49.06
2017-12-31T02:52:33.835Z,48.97
2017-12-31T02:53:33.815Z,48.97
2017-12-31T02:54:34.064Z,49.26
2017-12-31T02:55:33.780Z,49.44
2017-12-31T02:56:33.766Z,50.11
2017-12-31T02:57:34.008Z,50.11
2017-12-31T02:58:33.736Z,50.01
2017-12-31T02:59:33.712Z,49.82
2017-12-31T03:00:33.962Z,50.01
2017-12-31T03:01:33.939Z,50.01
2017-12-31T03:02:33.662Z,50.4
2017-12-31T03:03:33.645Z,50.59
2017-12-31T03:04:33.624Z,50.49
2017-12-31T03:05:33.875Z,50.59
2017-12-31T03:06:33.858Z,50.78
2017-12-31T03:07:33.576Z,51.06
2017-12-31T03:08:33.818Z,51.35
2017-12-31T03:09:33.805Z,51.35
2017-12-31T03:10:33.787Z,51.45
2017-12-31T03:11:33.769Z,51.73
2017-12-31T03:12:33.488Z,52.3
2017-12-31T03:13:33.473Z,51.92
2017-12-31T03:14:33.503Z,52.01
2017-12-31T03:15:33.444Z,52.49
2017-12-31T03:16:33.431Z,52.4
2017-12-31T03:17:33.661Z,52.87
2017-12-31T03:18:33.384Z,53.25
2017-12-31T03:19:33.366Z,53.25
2017-12-31T03:20:33.617Z,53.25
2017-12-31T03:21:33.334Z,53.35
2017-12-31T03:22:33.579Z,54.02
2017-12-31T03:23:33.563Z,54.11
2017-12-31T03:24:33.285Z,54.39
2017-12-31T03:25:33.526Z,54.59
2017-12-31T03:26:33.513Z,54.39
2017-12-31T03:27:33.492Z,54.78
2017-12-31T03:28:33.473Z,54.97
2017-12-31T03:29:33.193Z,55.13
2017-12-31T03:30:33.177Z,55.16
2017-12-31T03:31:33.424Z,55.32
2017-12-31T03:32:33.143Z,56.11
2017-12-31T03:33:33.120Z,55.7
2017-12-31T03:34:33.372Z,56.49
2017-12-31T03:35:33.093Z,57.04
2017-12-31T03:36:33.341Z,57.7
2017-12-31T03:37:33.317Z,58.37
2017-12-31T03:38:33.040Z,58.65
2017-12-31T03:39:33.281Z,58.94
2017-12-31T03:40:32.998Z,59.89
2017-12-31T03:41:33.249Z,60.37
2017-12-31T03:42:33.229Z,61.61
2017-12-31T03:43:32.954Z,62.46
2017-12-31T03:44:32.929Z,63.89
2017-12-31T03:45:32.912Z,64.75
2017-12-31T03:46:32.895Z,66.08
2017-12-31T03:47:33.138Z,67.22
2017-12-31T03:48:33.125Z,68.5
2017-12-31T03:49:33.111Z,69.54
2017-12-31T03:50:33.089Z,70.84
2017-12-31T03:51:32.806Z,72.02
2017-12-31T03:52:32.792Z,73.41
2017-12-31T03:53:33.036Z,75.55
2017-12-31T03:54:32.753Z,77.83
2017-12-31T03:55:32.734Z,78.88
2017-12-31T03:56:32.982Z,81.03
2017-12-31T03:57:32.702Z,83.45
2017-12-31T03:58:32.683Z,86.32
2017-12-31T03:59:32.663Z,88.7
2017-12-31T04:00:32.647Z,90.6
2017-12-31T04:01:32.896Z,93.37
2017-12-31T04:02:32.877Z,96.03
2017-12-31T04:03:32.857Z,98.51
2017-12-31T04:04:32.839Z,99.99
2017-12-31T04:05:32.820Z,99.99
2017-12-31T04:06:32.816Z,99.99
2017-12-31T04:07:32.521Z,99.99
2017-12-31T04:08:32.766Z,99.99
2017-12-31T04:09:32.781Z,99.99
2017-12-31T04:10:32.737Z,99.99
2017-12-31T04:11:32.725Z,99.99
2017-12-31T04:12:32.437Z,99.99
2017-12-31T04:13:32.688Z,99.99
2017-12-31T04:14:32.666Z,99.99
2017-12-31T04:15:32.388Z,99.99
2017-12-31T04:16:32.367Z,99.99
2017-12-31T04:17:32.352Z,99.99
2017-12-31T04:18:32.329Z,99.99
2017-12-31T04:19:32.315Z,99.99
2017-12-31T04:20:32.558Z,99.99
2017-12-31T04:21:32.280Z,99.99
2017-12-31T04:22:32.534Z,99.99
2017-12-31T04:23:32.241Z,99.99
2017-12-31T04:24:32.225Z,99.99
2017-12-31T04:25:32.211Z,99.99
2017-12-31T04:26:32.192Z,99.99
2017-12-31T04:27:32.434Z,99.99
2017-12-31T04:28:32.153Z,99.99
2017-12-31T04:29:32.141Z,99.99
2017-12-31T04:30:32.381Z,99.99
2017-12-31T04:31:32.100Z,99.99
2017-12-31T04:32:32.352Z,99.99
2017-12-31T04:33:32.326Z,99.99
2017-12-31T04:34:32.047Z,99.99
2017-12-31T04:35:32.298Z,99.99
2017-12-31T04:36:32.011Z,99.99
2017-12-31T04:37:32.255Z,99.99
2017-12-31T04:38:31.976Z,99.99
2017-12-31T04:39:32.222Z,99.99
2017-12-31T04:40:32.202Z,99.99
2017-12-31T04:41:32.185Z,99.99
2017-12-31T04:42:31.907Z,99.99
2017-12-31T04:43:31.889Z,99.99
2017-12-31T04:44:32.130Z,99.99
2017-12-31T04:45:31.850Z,99.99
2017-12-31T04:46:32.093Z,99.99
2017-12-31T04:47:31.824Z,99.99
2017-12-31T04:48:31.796Z,99.99
2017-12-31T04:49:32.058Z,99.99
2017-12-31T04:50:32.019Z,99.99
2017-12-31T04:51:32.006Z,99.99
2017-12-31T04:52:31.986Z,99.99
2017-12-31T04:53:31.709Z,99.99
2017-12-31T04:54:31.950Z,99.99
2017-12-31T04:55:31.673Z,99.99
2017-12-31T04:56:31.967Z,99.99
2017-12-31T04:57:31.899Z,99.99
2017-12-31T04:58:31.614Z,99.99
2017-12-31T04:59:31.865Z,99.99
2017-12-31T05:00:31.580Z,99.99
2017-12-31T05:01:31.562Z,99.99
2017-12-31T05:02:31.546Z,99.99
2017-12-31T05:03:31.525Z,99.99
2017-12-31T05:04:31.771Z,99.99
2017-12-31T05:05:31.752Z,99.99
2017-12-31T05:06:31.472Z,99.99
2017-12-31T05:07:31.454Z,99.99
2017-12-31T05:08:31.705Z,99.99
2017-12-31T05:09:31.419Z,99.99
2017-12-31T05:10:31.665Z,99.99
2017-12-31T05:11:31.646Z,99.99
2017-12-31T05:12:31.642Z,99.99
2017-12-31T05:13:31.620Z,99.99
2017-12-31T05:14:31.595Z,99.99
2017-12-31T05:15:31.582Z,99.99
2017-12-31T05:16:31.558Z,99.99
2017-12-31T05:17:31.280Z,99.99
2017-12-31T05:18:31.262Z,99.99
2017-12-31T05:19:31.249Z,99.99
2017-12-31T05:20:31.225Z,99.99
2017-12-31T05:21:31.210Z,99.99
2017-12-31T05:22:31.452Z,99.99
2017-12-31T05:23:31.172Z,99.99
2017-12-31T05:24:31.417Z,99.99
2017-12-31T05:25:31.405Z,99.99
2017-12-31T05:26:31.383Z,99.99
2017-12-31T05:27:31.370Z,99.99
2017-12-31T05:28:31.349Z,99.99
2017-12-31T05:29:31.332Z,99.99
2017-12-31T05:30:31.048Z,99.99
2017-12-31T05:31:31.298Z,99.99
2017-12-31T05:32:31.017Z,99.99
2017-12-31T05:33:31.265Z,99.99
2017-12-31T05:34:31.248Z,99.99
2017-12-31T05:35:30.967Z,99.99
2017-12-31T05:36:30.947Z,99.99
2017-12-31T05:37:30.929Z,99.99
2017-12-31T05:38:30.920Z,99.99
2017-12-31T05:39:31.161Z,99.99
2017-12-31T05:40:31.145Z,99.99
2017-12-31T05:41:30.863Z,99.99
2017-12-31T05:42:30.844Z,99.99
2017-12-31T05:43:31.092Z,99.99
2017-12-31T05:44:30.808Z,99.99
2017-12-31T05:45:31.059Z,99.99
2017-12-31T05:46:31.054Z,99.99
2017-12-31T05:47:31.022Z,99.99
2017-12-31T05:48:30.741Z,99.99
2017-12-31T05:49:31.199Z,99.99
2017-12-31T05:50:30.974Z,99.99
2017-12-31T05:51:30.702Z,99.99
2017-12-31T05:52:30.941Z,99.99
2017-12-31T05:53:30.654Z,99.99
2017-12-31T05:54:30.638Z,99.99
2017-12-31T05:55:30.618Z,99.99
2017-12-31T05:56:30.872Z,99.99
2017-12-31T05:57:30.855Z,99.99
2017-12-31T05:58:30.835Z,99.99
2017-12-31T05:59:30.616Z,99.99
2017-12-31T06:00:30.534Z,99.99
2017-12-31T06:01:31.047Z,99.99
2017-12-31T06:02:30.771Z,99.99
2017-12-31T06:03:30.752Z,99.99
2017-12-31T06:04:30.731Z,99.99
2017-12-31T06:05:30.720Z,99.99
2017-12-31T06:06:30.433Z,99.99
2017-12-31T06:07:30.679Z,99.99
2017-12-31T06:08:30.404Z,99.99
2017-12-31T06:09:30.383Z,99.99
2017-12-31T06:10:30.632Z,99.99
2017-12-31T06:11:30.615Z,99.99
2017-12-31T06:12:30.601Z,99.99
2017-12-31T06:13:30.578Z,99.99
2017-12-31T06:14:30.298Z,99.99
2017-12-31T06:15:30.281Z,99.99
2017-12-31T06:16:30.528Z,99.99
2017-12-31T06:17:30.248Z,99.99
2017-12-31T06:18:30.493Z,99.99
2017-12-31T06:19:30.477Z,99.99
2017-12-31T06:20:30.198Z,99.99
2017-12-31T06:21:30.443Z,99.99
2017-12-31T06:22:30.427Z,99.99
2017-12-31T06:23:30.410Z,99.99
2017-12-31T06:24:30.393Z,99.99
2017-12-31T06:25:30.116Z,99.99
2017-12-31T06:26:30.368Z,99.99
2017-12-31T06:27:30.345Z,99.99
2017-12-31T06:28:30.320Z,99.99
2017-12-31T06:29:30.312Z,99.99
2017-12-31T06:30:30.295Z,99.99
2017-12-31T06:31:30.282Z,99.99
2017-12-31T06:32:29.996Z,99.99
2017-12-31T06:33:30.252Z,99.99
2017-12-31T06:34:30.226Z,99.99
2017-12-31T06:35:29.941Z,99.99
2017-12-31T06:36:29.924Z,99.99
2017-12-31T06:37:29.909Z,99.99
2017-12-31T06:38:29.899Z,99.99
2017-12-31T06:39:30.140Z,99.99
2017-12-31T06:40:29.857Z,99.99
2017-12-31T06:41:30.110Z,99.99
2017-12-31T06:42:29.825Z,99.99
2017-12-31T06:43:30.068Z,99.99
2017-12-31T06:44:30.052Z,99.99
2017-12-31T06:45:29.777Z,99.99
2017-12-31T06:46:29.756Z,99.99
2017-12-31T06:47:29.748Z,99.99
2017-12-31T06:48:29.991Z,99.99
2017-12-31T06:49:29.707Z,99.99
2017-12-31T06:50:29.953Z,99.99
2017-12-31T06:51:29.671Z,99.99
2017-12-31T06:52:29.918Z,99.99
2017-12-31T06:53:29.901Z,99.99
2017-12-31T06:54:29.623Z,99.99
2017-12-31T06:55:29.869Z,99.99
2017-12-31T06:56:29.848Z,99.99
2017-12-31T06:57:29.835Z,99.99
2017-12-31T06:58:29.820Z,99.99
2017-12-31T06:59:29.802Z,99.99
2017-12-31T07:00:29.792Z,99.99
2017-12-31T07:01:29.764Z,99.99
2017-12-31T07:02:29.750Z,99.99
2017-12-31T07:03:29.473Z,99.99
2017-12-31T07:04:29.714Z,99.99
2017-12-31T07:05:29.700Z,99.99
2017-12-31T07:06:29.417Z,99.99
2017-12-31T07:07:29.661Z,99.99
2017-12-31T07:08:29.384Z,99.99
2017-12-31T07:09:29.369Z,99.99
2017-12-31T07:10:29.617Z,99.99
2017-12-31T07:11:29.334Z,99.99
2017-12-31T07:12:29.577Z,99.99
2017-12-31T07:13:29.298Z,99.99
2017-12-31T07:14:29.547Z,99.99
2017-12-31T07:15:29.531Z,99.99
2017-12-31T07:16:29.513Z,99.99
2017-12-31T07:17:29.502Z,99.99
2017-12-31T07:18:29.210Z,99.99
2017-12-31T07:19:29.198Z,99.99
2017-12-31T07:20:29.452Z,99.99
2017-12-31T07:21:29.167Z,99.99
2017-12-31T07:22:29.152Z,99.99
2017-12-31T07:23:29.392Z,99.99
2017-12-31T07:24:29.374Z,99.99
2017-12-31T07:25:29.363Z,99.99
2017-12-31T07:26:29.349Z,99.99
2017-12-31T07:27:29.329Z,99.99
2017-12-31T07:28:29.314Z,99.99
2017-12-31T07:29:29.297Z,99.99
2017-12-31T07:30:29.271Z,99.99
2017-12-31T07:31:29.255Z,99.99
2017-12-31T07:32:29.238Z,99.99
2017-12-31T07:33:29.230Z,99.99
2017-12-31T07:34:29.240Z,99.99
2017-12-31T07:35:29.184Z,99.99
2017-12-31T07:36:28.909Z,99.99
2017-12-31T07:37:29.158Z,99.99
2017-12-31T07:38:29.137Z,99.99
2017-12-31T07:39:28.857Z,99.99
2017-12-31T07:40:29.105Z,99.99
2017-12-31T07:41:29.082Z,99.99
2017-12-31T07:42:28.804Z,99.99
2017-12-31T07:43:28.788Z,99.99
2017-12-31T07:44:29.034Z,99.99
2017-12-31T07:45:28.752Z,99.99
2017-12-31T07:46:28.998Z,99.99
2017-12-31T07:47:28.721Z,99.99
2017-12-31T07:48:28.705Z,99.99
2017-12-31T07:49:28.687Z,99.99
2017-12-31T07:50:28.670Z,99.99
2017-12-31T07:51:28.918Z,99.99
2017-12-31T07:52:28.637Z,99.99
2017-12-31T07:53:28.884Z,99.99
2017-12-31T07:54:28.600Z,99.99
2017-12-31T07:55:28.847Z,99.99
2017-12-31T07:56:28.571Z,99.99
2017-12-31T07:57:28.812Z,99.99
2017-12-31T07:58:28.800Z,99.99
2017-12-31T07:59:28.518Z,99.99
2017-12-31T08:00:28.503Z,99.99
2017-12-31T08:01:28.755Z,99.99
2017-12-31T08:02:28.468Z,99.99
2017-12-31T08:03:28.454Z,99.99
2017-12-31T08:04:28.442Z,99.99
2017-12-31T08:05:28.419Z,99.99
2017-12-31T08:06:28.667Z,99.99
2017-12-31T08:07:28.649Z,99.99
2017-12-31T08:08:28.637Z,99.99
2017-12-31T08:09:28.350Z,99.99
2017-12-31T08:10:28.333Z,99.99
2017-12-31T08:11:28.321Z,99.99
2017-12-31T08:12:28.566Z,99.99
2017-12-31T08:13:28.549Z,99.99
2017-12-31T08:14:28.268Z,99.99
2017-12-31T08:15:28.511Z,99.99
2017-12-31T08:16:28.235Z,99.99
2017-12-31T08:17:28.217Z,99.99
2017-12-31T08:18:28.200Z,99.99
2017-12-31T08:19:28.189Z,99.99
2017-12-31T08:20:28.378Z,99.99
2017-12-31T08:21:28.155Z,99.99
2017-12-31T08:22:28.138Z,99.99
2017-12-31T08:23:28.117Z,99.99
2017-12-31T08:24:28.103Z,99.99
2017-12-31T08:25:28.084Z,99.99
2017-12-31T08:26:28.068Z,99.99
2017-12-31T08:27:28.052Z,99.99
2017-12-31T08:28:28.298Z,99.99
2017-12-31T08:29:28.014Z,99.99
2017-12-31T08:30:28.002Z,99.99
2017-12-31T08:31:28.248Z,99.99
2017-12-31T08:32:27.968Z,99.99
2017-12-31T08:33:28.214Z,99.99
2017-12-31T08:34:28.198Z,99.99
2017-12-31T08:35:27.918Z,99.99
2017-12-31T08:36:28.164Z,99.99
2017-12-31T08:37:27.892Z,99.99
2017-12-31T08:38:28.135Z,99.99
2017-12-31T08:39:27.855Z,99.99
2017-12-31T08:40:28.100Z,99.99
2017-12-31T08:41:28.078Z,99.99
2017-12-31T08:42:27.803Z,99.99
2017-12-31T08:43:28.049Z,99.99
2017-12-31T08:44:27.771Z,99.99
2017-12-31T08:45:28.017Z,99.99
2017-12-31T08:46:28.000Z,99.99
2017-12-31T08:47:27.977Z,99.99
2017-12-31T08:48:27.968Z,99.99
2017-12-31T08:49:27.946Z,99.99
2017-12-31T08:50:27.671Z,99.99
2017-12-31T08:51:27.653Z,99.99
2017-12-31T08:52:27.633Z,99.99
2017-12-31T08:53:27.629Z,99.99
2017-12-31T08:54:27.865Z,99.99
2017-12-31T08:55:27.849Z,99.99
2017-12-31T08:56:27.836Z,99.99
2017-12-31T08:57:27.819Z,99.99
2017-12-31T08:58:27.801Z,99.99
2017-12-31T08:59:27.780Z,99.99
2017-12-31T09:00:27.770Z,99.99
2017-12-31T09:01:27.748Z,99.99
2017-12-31T09:02:27.734Z,99.99
2017-12-31T09:03:27.715Z,99.99
2017-12-31T09:04:27.700Z,99.99
2017-12-31T09:05:27.418Z,99.99
2017-12-31T09:06:27.404Z,99.99
2017-12-31T09:07:27.649Z,99.99
2017-12-31T09:08:27.370Z,99.99
2017-12-31T09:09:27.617Z,99.99
2017-12-31T09:10:27.601Z,99.99
2017-12-31T09:11:27.325Z,99.99
2017-12-31T09:12:27.571Z,99.99
2017-12-31T09:13:27.556Z,99.99
2017-12-31T09:14:27.272Z,99.99
2017-12-31T09:15:27.532Z,99.99
2017-12-31T09:16:27.505Z,99.99
2017-12-31T09:17:27.229Z,99.99
2017-12-31T09:18:27.481Z,99.99
2017-12-31T09:19:27.189Z,99.99
2017-12-31T09:20:27.441Z,99.99
2017-12-31T09:21:27.425Z,99.99
2017-12-31T09:22:27.409Z,99.99
2017-12-31T09:23:27.394Z,99.99
2017-12-31T09:24:27.118Z,99.99
2017-12-31T09:25:27.360Z,99.99
2017-12-31T09:26:27.085Z,99.99
2017-12-31T09:27:27.327Z,99.99
2017-12-31T09:28:27.325Z,99.99
2017-12-31T09:29:27.303Z,99.99
2017-12-31T09:30:27.019Z,99.99
2017-12-31T09:31:26.999Z,99.99
2017-12-31T09:32:27.046Z,99.99
2017-12-31T09:33:27.243Z,99.99
2017-12-31T09:34:26.951Z,99.99
2017-12-31T09:35:26.938Z,99.99
2017-12-31T09:36:26.922Z,99.99
2017-12-31T09:37:26.905Z,99.99
2017-12-31T09:38:27.161Z,99.99
2017-12-31T09:39:27.134Z,99.99
2017-12-31T09:40:26.872Z,99.99
2017-12-31T09:41:26.846Z,99.99
2017-12-31T09:42:27.090Z,99.99
2017-12-31T09:43:27.072Z,99.99
2017-12-31T09:44:27.075Z,99.99
2017-12-31T09:45:26.784Z,99.99
2017-12-31T09:46:26.762Z,99.99
2017-12-31T09:47:26.780Z,99.99
2017-12-31T09:48:26.736Z,99.99
2017-12-31T09:49:26.980Z,99.99
2017-12-31T09:50:27.048Z,99.99
2017-12-31T09:51:26.682Z,99.99
2017-12-31T09:52:26.928Z,99.99
2017-12-31T09:53:26.917Z,99.99
2017-12-31T09:54:26.899Z,99.99
2017-12-31T09:55:26.907Z,99.99
2017-12-31T09:56:26.605Z,99.99
2017-12-31T09:57:26.853Z,99.99
2017-12-31T09:58:26.572Z,99.99
2017-12-31T09:59:26.831Z,99.99
2017-12-31T10:00:26.808Z,99.99
2017-12-31T10:01:26.796Z,99.99
2017-12-31T10:02:26.511Z,99.99
2017-12-31T10:03:26.492Z,99.99
2017-12-31T10:04:26.740Z,99.99
2017-12-31T10:05:26.724Z,99.99
2017-12-31T10:06:26.715Z,99.99
2017-12-31T10:07:26.693Z,99.99
2017-12-31T10:08:26.679Z,99.99
2017-12-31T10:09:26.664Z,99.99
2017-12-31T10:10:26.648Z,99.99
2017-12-31T10:11:26.630Z,99.99
2017-12-31T10:12:26.864Z,99.99
2017-12-31T10:13:26.340Z,99.99
2017-12-31T10:14:26.596Z,99.99
2017-12-31T10:15:26.312Z,99.99
2017-12-31T10:16:26.295Z,99.99
2017-12-31T10:17:26.271Z,99.99
2017-12-31T10:18:26.519Z,99.99
2017-12-31T10:19:26.515Z,99.99
2017-12-31T10:20:26.703Z,99.99
2017-12-31T10:21:26.476Z,99.99
2017-12-31T10:22:26.464Z,99.99
2017-12-31T10:23:26.182Z,99.99
2017-12-31T10:24:26.428Z,99.99
2017-12-31T10:25:26.151Z,99.99
2017-12-31T10:26:26.400Z,99.99
2017-12-31T10:27:26.381Z,99.99
2017-12-31T10:28:26.102Z,99.99
2017-12-31T10:29:26.090Z,99.99
2017-12-31T10:30:26.339Z,99.99
2017-12-31T10:31:26.058Z,99.99
2017-12-31T10:32:26.053Z,99.99
2017-12-31T10:33:26.290Z,99.99
2017-12-31T10:34:26.055Z,99.99
2017-12-31T10:35:26.008Z,99.99
2017-12-31T10:36:26.240Z,99.99
2017-12-31T10:37:26.227Z,99.99
2017-12-31T10:38:26.212Z,99.99
2017-12-31T10:39:26.196Z,99.99
2017-12-31T10:40:25.925Z,99.99
2017-12-31T10:41:25.903Z,99.99
2017-12-31T10:42:26.151Z,99.99
2017-12-31T10:43:26.138Z,99.99
2017-12-31T10:44:25.860Z,99.99
2017-12-31T10:45:26.108Z,99.99
2017-12-31T10:46:25.832Z,99.99
2017-12-31T10:47:25.810Z,99.99
2017-12-31T10:48:26.061Z,99.99
2017-12-31T10:49:25.780Z,99.99
2017-12-31T10:50:26.029Z,99.99
2017-12-31T10:51:26.014Z,99.99
2017-12-31T10:52:26.001Z,99.99
2017-12-31T10:53:25.984Z,99.99
2017-12-31T10:54:26.026Z,99.99
2017-12-31T10:55:25.694Z,99.99
2017-12-31T10:56:25.955Z,99.99
2017-12-31T10:57:25.659Z,99.99
2017-12-31T10:58:25.642Z,99.99
2017-12-31T10:59:25.631Z,99.99
2017-12-31T11:00:25.613Z,99.99
2017-12-31T11:01:25.864Z,99.99
2017-12-31T11:02:25.584Z,99.99
2017-12-31T11:03:25.836Z,99.99
2017-12-31T11:04:25.817Z,99.99
2017-12-31T11:05:25.806Z,99.99
2017-12-31T11:06:25.521Z,99.99
2017-12-31T11:07:25.509Z,99.99
2017-12-31T11:08:25.764Z,99.99
2017-12-31T11:09:25.742Z,99.99
2017-12-31T11:10:25.775Z,99.99
2017-12-31T11:11:25.449Z,99.99
2017-12-31T11:12:25.737Z,99.99
2017-12-31T11:13:25.419Z,99.99
2017-12-31T11:14:25.672Z,99.99
2017-12-31T11:15:25.653Z,99.99
2017-12-31T11:16:25.636Z,99.99
2017-12-31T11:17:25.363Z,99.99
2017-12-31T11:18:25.343Z,99.99
2017-12-31T11:19:25.593Z,99.99
2017-12-31T11:20:25.314Z,99.99
2017-12-31T11:21:25.559Z,99.99
2017-12-31T11:22:25.295Z,99.99
2017-12-31T11:23:25.268Z,99.99
2017-12-31T11:24:25.531Z,99.99
2017-12-31T11:25:25.242Z,99.99
2017-12-31T11:26:25.538Z,99.99
2017-12-31T11:27:25.475Z,99.99
2017-12-31T11:28:25.193Z,99.99
2017-12-31T11:29:25.189Z,99.99
2017-12-31T11:30:25.433Z,99.99
2017-12-31T11:31:25.415Z,99.99
2017-12-31T11:32:25.401Z,99.99
2017-12-31T11:33:25.389Z,99.99
2017-12-31T11:34:25.106Z,99.99
2017-12-31T11:35:25.095Z,99.99
2017-12-31T11:36:25.340Z,99.99
2017-12-31T11:37:25.327Z,99.99
2017-12-31T11:38:25.050Z,99.99
2017-12-31T11:39:25.300Z,99.99
2017-12-31T11:40:25.015Z,99.99
2017-12-31T11:41:25.004Z,99.99
2017-12-31T11:42:24.986Z,99.99
2017-12-31T11:43:24.975Z,99.99
2017-12-31T11:44:25.234Z,99.99
2017-12-31T11:45:25.215Z,99.99
2017-12-31T11:46:25.194Z,99.99
2017-12-31T11:47:24.917Z,99.99
2017-12-31T11:48:24.901Z,99.99
2017-12-31T11:49:25.176Z,99.99
2017-12-31T11:50:24.872Z,99.99
2017-12-31T11:51:25.120Z,99.99
2017-12-31T11:52:25.104Z,99.99
2017-12-31T11:53:24.828Z,99.99
2017-12-31T11:54:24.812Z,99.99
2017-12-31T11:55:24.802Z,99.99
2017-12-31T11:56:24.784Z,99.99
2017-12-31T11:57:25.035Z,99.99
2017-12-31T11:58:24.751Z,99.99
2017-12-31T11:59:25.117Z,99.99
2017-12-31T12:00:24.988Z,99.99
2017-12-31T12:01:24.972Z,99.99
2017-12-31T12:02:24.696Z,99.99
2017-12-31T12:03:24.950Z,99.99
2017-12-31T12:04:25.135Z,99.99
2017-12-31T12:05:24.660Z,99.99
2017-12-31T12:06:24.905Z,99.99
2017-12-31T12:07:24.629Z,99.99
2017-12-31T12:08:24.614Z,99.99
2017-12-31T12:09:24.803Z,99.99
2017-12-31T12:10:24.849Z,99.99
2017-12-31T12:11:24.857Z,99.99
2017-12-31T12:12:24.554Z,99.99
2017-12-31T12:13:24.804Z,99.99
2017-12-31T12:14:24.526Z,99.99
2017-12-31T12:15:24.512Z,99.99
2017-12-31T12:16:24.500Z,99.99
2017-12-31T12:17:24.744Z,99.99
2017-12-31T12:18:24.736Z,99.99
2017-12-31T12:19:24.723Z,99.99
2017-12-31T12:20:24.473Z,99.99
2017-12-31T12:21:24.695Z,99.99
2017-12-31T12:22:24.414Z,99.99
2017-12-31T12:23:24.662Z,99.99
2017-12-31T12:24:24.389Z,99.99
2017-12-31T12:25:24.525Z,99.99
2017-12-31T12:26:24.358Z,99.99
2017-12-31T12:27:24.447Z,99.99
2017-12-31T12:28:24.600Z,99.99
2017-12-31T12:29:24.589Z,99.99
2017-12-31T12:30:24.578Z,99.99
2017-12-31T12:31:24.558Z,99.99
2017-12-31T12:32:24.557Z,99.99
2017-12-31T12:33:24.543Z,99.99
2017-12-31T12:34:24.258Z,99.99
2017-12-31T12:35:24.242Z,99.99
2017-12-31T12:36:24.232Z,99.99
2017-12-31T12:37:24.485Z,99.99
2017-12-31T12:38:24.207Z,99.99
2017-12-31T12:39:24.201Z,99.99
2017-12-31T12:40:24.449Z,99.99
2017-12-31T12:41:24.439Z,99.99
2017-12-31T12:42:24.159Z,99.99
2017-12-31T12:43:24.198Z,99.99
2017-12-31T12:44:24.404Z,99.99
2017-12-31T12:45:24.389Z,99.99
2017-12-31T12:46:24.382Z,99.99
2017-12-31T12:47:24.373Z,99.99
2017-12-31T12:48:24.350Z,99.99
2017-12-31T12:49:24.079Z,99.99
2017-12-31T12:50:24.334Z,99.99
2017-12-31T12:51:24.058Z,99.99
2017-12-31T12:52:24.042Z,99.99
2017-12-31T12:53:24.388Z,99.99